Kure Harbour — 3EZL4 — position and weather

sailwx.info

Track history (hours):
 
Tides and Currents Weather Stations Pressure Air Temp Water Temp Dewpoint Dewpoint Depression Visibility Wind Speed Wind Dir Waves Ship Positions

Kure Harbour

Last reported at 2017-Sep-17 18:43 UTC. Time now 2017-Sep-19 19:06 UTC.
Position N 31°40' E 031°43'.

Length 190 m; draft 10.9 m.

Type: Cargo ship. MMSI: 357538000.

Date/timePositionNaut miles runAvg speedWind from/ knotsBaromVisibWave heightAir tempDewpointWater temp
2017-Sep-17 18:43N 31°40' E 031°43'  
2017-Sep-13 00:24N 35°38' E 017°16'614.4
2017-Sep-13 00:00N 35°39' E 017°09'11414.1
2017-Sep-12 15:56N 36°13' E 014°55'615.0
2017-Sep-12 15:30N 36°16' E 014°48'714.9
2017-Sep-12 15:01N 36°19' E 014°39'814.9
2017-Sep-12 14:30N 36°21' E 014°30'715.0
2017-Sep-12 14:01N 36°23' E 014°22'815.1
2017-Sep-12 13:31N 36°26' E 014°13'815.3
2017-Sep-12 13:00N 36°28' E 014°04'815.3
2017-Sep-12 12:31N 36°31' E 013°55'815.3
2017-Sep-12 11:59N 36°33' E 013°45'714.7
2017-Sep-12 11:30N 36°36' E 013°37'814.5
2017-Sep-12 10:57N 36°38' E 013°28'1314.3
2017-Sep-12 10:01N 36°43' E 013°12'014.5
2017-Sep-12 10:01N 36°43' E 013°12'  
2017-Sep-09 17:02N 36°01' W 005°02'115.2
2017-Sep-09 17:00N 36°01' W 005°03'816.5
2017-Sep-09 16:31N 35°60' W 005°13'917.1
2017-Sep-09 16:01N 35°58' W 005°23'1315.1
2017-Sep-09 15:07N 35°55' W 005°40'613.7
2017-Sep-09 14:43N 35°55' W 005°46'314.2
2017-Sep-09 14:29N 35°55' W 005°50'13613.6
2017-Sep-09 04:29N 36°25' W 008°34'713.4
2017-Sep-09 04:00N 36°26' W 008°42'713.5
2017-Sep-09 03:27N 36°28' W 008°51'613.3
2017-Sep-09 02:59N 36°30' W 008°58'613.4
2017-Sep-09 02:30N 36°31' W 009°06'713.3
2017-Sep-09 02:00N 36°34' W 009°14'612.9
2017-Sep-09 01:30N 36°38' W 009°20'713.3
2017-Sep-09 01:00N 36°42' W 009°26'713.5
2017-Sep-09 00:30N 36°47' W 009°32'713.4
2017-Sep-08 23:59N 36°54' W 009°35'713.8
2017-Sep-08 23:29N 37°00' W 009°36'713.8
2017-Sep-08 22:58N 37°07' W 009°39'713.9
2017-Sep-08 22:30N 37°14' W 009°41'914.3
2017-Sep-08 21:52N 37°23' W 009°43'614.5
2017-Sep-08 21:28N 37°28' W 009°44'614.2
2017-Sep-08 21:00N 37°35' W 009°46'714.0
2017-Sep-08 20:30N 37°42' W 009°48'713.7
2017-Sep-08 20:00N 37°48' W 009°50'713.7
2017-Sep-08 19:30N 37°55' W 009°52'713.8
2017-Sep-08 19:00N 38°02' W 009°54'713.9
2017-Sep-08 18:30N 38°08' W 009°56'713.6
2017-Sep-08 18:00N 38°15' W 009°58'713.7
2017-Sep-08 17:30N 38°22' W 009°59'713.7
2017-Sep-08 17:01N 38°28' W 010°01'714.0
2017-Sep-08 16:31N 38°35' W 010°03'713.8
2017-Sep-08 16:01N 38°42' W 010°05'714.1
2017-Sep-08 15:30N 38°49' W 010°05'714.0
2017-Sep-08 15:00N 38°56' W 010°05'713.5
2017-Sep-08 14:30N 39°03' W 010°05'713.3
2017-Sep-08 14:01N 39°09' W 010°05'713.8
2017-Sep-08 13:30N 39°16' W 010°05'714.1
2017-Sep-08 13:00N 39°23' W 010°05'713.9
2017-Sep-08 12:30N 39°30' W 010°05'713.7
2017-Sep-08 12:00N 39°37' W 010°05'713.7
2017-Sep-08 11:30N 39°44' W 010°05'713.8
2017-Sep-08 11:00N 39°51' W 010°04'1313.5
2017-Sep-08 10:02N 40°04' W 010°05'313.4
2017-Sep-08 09:50N 40°07' W 010°05'512.9
2017-Sep-08 09:28N 40°11' W 010°05'613.2
2017-Sep-08 09:00N 40°17' W 010°05'713.5
2017-Sep-08 08:30N 40°24' W 010°05'813.3
2017-Sep-08 07:52N 40°33' W 010°05'513.2
2017-Sep-08 07:30N 40°37' W 010°05'713.1
2017-Sep-08 06:57N 40°45' W 010°06'  
Track history (hours):
 
Tides and Currents Weather Stations Pressure Air Temp Water Temp Dewpoint Dewpoint Depression Visibility Wind Speed Wind Dir Waves Ship Positions

Kure Harbour

Last reported at 2017-Sep-17 18:43 UTC. Time now 2017-Sep-19 19:06 UTC.
Position N 31°40' E 031°43'.

Length 190 m; draft 10.9 m.

Type: Cargo ship. MMSI: 357538000.

Date/timePositionNaut miles runAvg speedWind from/ knotsBaromVisibWave heightAir tempDewpointWater temp
2017-Sep-17 18:43N 31°40' E 031°43'  
2017-Sep-13 00:24N 35°38' E 017°16'614.4
2017-Sep-13 00:00N 35°39' E 017°09'11414.1
2017-Sep-12 15:56N 36°13' E 014°55'615.0
2017-Sep-12 15:30N 36°16' E 014°48'714.9
2017-Sep-12 15:01N 36°19' E 014°39'814.9
2017-Sep-12 14:30N 36°21' E 014°30'715.0
2017-Sep-12 14:01N 36°23' E 014°22'815.1
2017-Sep-12 13:31N 36°26' E 014°13'815.3
2017-Sep-12 13:00N 36°28' E 014°04'815.3
2017-Sep-12 12:31N 36°31' E 013°55'815.3
2017-Sep-12 11:59N 36°33' E 013°45'714.7
2017-Sep-12 11:30N 36°36' E 013°37'814.5
2017-Sep-12 10:57N 36°38' E 013°28'1314.3
2017-Sep-12 10:01N 36°43' E 013°12'014.5
2017-Sep-12 10:01N 36°43' E 013°12'  
2017-Sep-09 17:02N 36°01' W 005°02'115.2
2017-Sep-09 17:00N 36°01' W 005°03'816.5
2017-Sep-09 16:31N 35°60' W 005°13'917.1
2017-Sep-09 16:01N 35°58' W 005°23'1315.1
2017-Sep-09 15:07N 35°55' W 005°40'613.7
2017-Sep-09 14:43N 35°55' W 005°46'314.2
2017-Sep-09 14:29N 35°55' W 005°50'13613.6
2017-Sep-09 04:29N 36°25' W 008°34'713.4
2017-Sep-09 04:00N 36°26' W 008°42'713.5
2017-Sep-09 03:27N 36°28' W 008°51'613.3
2017-Sep-09 02:59N 36°30' W 008°58'613.4
2017-Sep-09 02:30N 36°31' W 009°06'713.3
2017-Sep-09 02:00N 36°34' W 009°14'612.9
2017-Sep-09 01:30N 36°38' W 009°20'713.3
2017-Sep-09 01:00N 36°42' W 009°26'713.5
2017-Sep-09 00:30N 36°47' W 009°32'713.4
2017-Sep-08 23:59N 36°54' W 009°35'713.8
2017-Sep-08 23:29N 37°00' W 009°36'713.8
2017-Sep-08 22:58N 37°07' W 009°39'713.9
2017-Sep-08 22:30N 37°14' W 009°41'914.3
2017-Sep-08 21:52N 37°23' W 009°43'614.5
2017-Sep-08 21:28N 37°28' W 009°44'614.2
2017-Sep-08 21:00N 37°35' W 009°46'714.0
2017-Sep-08 20:30N 37°42' W 009°48'713.7
2017-Sep-08 20:00N 37°48' W 009°50'713.7
2017-Sep-08 19:30N 37°55' W 009°52'713.8
2017-Sep-08 19:00N 38°02' W 009°54'713.9
2017-Sep-08 18:30N 38°08' W 009°56'713.6
2017-Sep-08 18:00N 38°15' W 009°58'713.7
2017-Sep-08 17:30N 38°22' W 009°59'713.7
2017-Sep-08 17:01N 38°28' W 010°01'714.0
2017-Sep-08 16:31N 38°35' W 010°03'713.8
2017-Sep-08 16:01N 38°42' W 010°05'714.1
2017-Sep-08 15:30N 38°49' W 010°05'714.0
2017-Sep-08 15:00N 38°56' W 010°05'713.5
2017-Sep-08 14:30N 39°03' W 010°05'713.3
2017-Sep-08 14:01N 39°09' W 010°05'713.8
2017-Sep-08 13:30N 39°16' W 010°05'714.1
2017-Sep-08 13:00N 39°23' W 010°05'713.9
2017-Sep-08 12:30N 39°30' W 010°05'713.7
2017-Sep-08 12:00N 39°37' W 010°05'713.7
2017-Sep-08 11:30N 39°44' W 010°05'713.8
2017-Sep-08 11:00N 39°51' W 010°04'1313.5
2017-Sep-08 10:02N 40°04' W 010°05'313.4
2017-Sep-08 09:50N 40°07' W 010°05'512.9
2017-Sep-08 09:28N 40°11' W 010°05'613.2
2017-Sep-08 09:00N 40°17' W 010°05'713.5
2017-Sep-08 08:30N 40°24' W 010°05'813.3
2017-Sep-08 07:52N 40°33' W 010°05'513.2
2017-Sep-08 07:30N 40°37' W 010°05'713.1
2017-Sep-08 06:57N 40°45' W 010°06'  

Dump ship's entire track history